sensor_id;sensor_type;location;lat;lon;timestamp;P1;durP1;ratioP1;P2;durP2;ratioP2
68212;SDS011;55035;47.792;8.724;2022-09-03T00:01:49;11.43;;;6.97;;
68212;SDS011;55035;47.792;8.724;2022-09-03T00:04:17;13.75;;;7.03;;
68212;SDS011;55035;47.792;8.724;2022-09-03T00:06:47;11.90;;;6.60;;
68212;SDS011;55035;47.792;8.724;2022-09-03T00:09:18;15.52;;;7.47;;
68212;SDS011;55035;47.792;8.724;2022-09-03T00:11:50;13.57;;;7.18;;
68212;SDS011;55035;47.792;8.724;2022-09-03T00:14:18;11.10;;;7.00;;
68212;SDS011;55035;47.792;8.724;2022-09-03T00:16:47;12.23;;;7.20;;
68212;SDS011;55035;47.792;8.724;2022-09-03T00:19:15;13.27;;;7.45;;
68212;SDS011;55035;47.792;8.724;2022-09-03T00:21:44;13.88;;;8.07;;
68212;SDS011;55035;47.792;8.724;2022-09-03T00:24:12;13.55;;;8.38;;
68212;SDS011;55035;47.792;8.724;2022-09-03T00:26:42;11.20;;;6.93;;
68212;SDS011;55035;47.792;8.724;2022-09-03T00:29:12;12.15;;;7.32;;
68212;SDS011;55035;47.792;8.724;2022-09-03T00:31:40;13.18;;;8.55;;
68212;SDS011;55035;47.792;8.724;2022-09-03T00:34:09;14.15;;;8.45;;
68212;SDS011;55035;47.792;8.724;2022-09-03T00:36:38;15.63;;;9.55;;
68212;SDS011;55035;47.792;8.724;2022-09-03T00:39:08;14.50;;;8.33;;
68212;SDS011;55035;47.792;8.724;2022-09-03T00:41:36;14.43;;;9.05;;
68212;SDS011;55035;47.792;8.724;2022-09-03T00:44:11;15.07;;;8.95;;
68212;SDS011;55035;47.792;8.724;2022-09-03T00:46:41;15.57;;;8.90;;
68212;SDS011;55035;47.792;8.724;2022-09-03T00:49:15;17.02;;;9.35;;
68212;SDS011;55035;47.792;8.724;2022-09-03T00:51:48;14.07;;;9.13;;
68212;SDS011;55035;47.792;8.724;2022-09-03T00:54:17;16.10;;;9.35;;
68212;SDS011;55035;47.792;8.724;2022-09-03T00:56:47;14.30;;;9.05;;
68212;SDS011;55035;47.792;8.724;2022-09-03T00:59:21;13.95;;;8.68;;
68212;SDS011;55035;47.792;8.724;2022-09-03T01:01:53;13.88;;;8.95;;
68212;SDS011;55035;47.792;8.724;2022-09-03T01:04:27;15.77;;;9.50;;
68212;SDS011;55035;47.792;8.724;2022-09-03T01:06:57;13.88;;;8.95;;
68212;SDS011;55035;47.792;8.724;2022-09-03T01:09:30;13.60;;;8.85;;
68212;SDS011;55035;47.792;8.724;2022-09-03T01:12:04;14.40;;;8.45;;
68212;SDS011;55035;47.792;8.724;2022-09-03T01:14:42;15.50;;;9.25;;
68212;SDS011;55035;47.792;8.724;2022-09-03T01:17:15;16.30;;;9.63;;
68212;SDS011;55035;47.792;8.724;2022-09-03T01:19:57;14.50;;;8.93;;
68212;SDS011;55035;47.792;8.724;2022-09-03T01:25:14;14.05;;;7.65;;
68212;SDS011;55035;47.792;8.724;2022-09-03T01:27:45;11.60;;;7.13;;
68212;SDS011;55035;47.792;8.724;2022-09-03T01:30:20;12.10;;;7.60;;
68212;SDS011;55035;47.792;8.724;2022-09-03T01:32:50;11.30;;;7.15;;
68212;SDS011;55035;47.792;8.724;2022-09-03T01:35:21;13.65;;;6.82;;
68212;SDS011;55035;47.792;8.724;2022-09-03T01:37:53;11.85;;;7.30;;
68212;SDS011;55035;47.792;8.724;2022-09-03T01:40:24;12.18;;;7.90;;
68212;SDS011;55035;47.792;8.724;2022-09-03T01:42:58;13.90;;;7.53;;
68212;SDS011;55035;47.792;8.724;2022-09-03T01:45:39;12.07;;;7.82;;
68212;SDS011;55035;47.792;8.724;2022-09-03T01:48:15;12.80;;;6.18;;
68212;SDS011;55035;47.792;8.724;2022-09-03T01:50:47;10.00;;;5.90;;
68212;SDS011;55035;47.792;8.724;2022-09-03T01:53:24;11.80;;;6.45;;
68212;SDS011;55035;47.792;8.724;2022-09-03T01:55:57;9.97;;;5.77;;
68212;SDS011;55035;47.792;8.724;2022-09-03T01:58:31;10.38;;;5.72;;
68212;SDS011;55035;47.792;8.724;2022-09-03T02:01:02;10.77;;;5.80;;
68212;SDS011;55035;47.792;8.724;2022-09-03T02:03:34;9.45;;;4.78;;
68212;SDS011;55035;47.792;8.724;2022-09-03T02:06:03;9.10;;;5.30;;
68212;SDS011;55035;47.792;8.724;2022-09-03T02:08:31;8.90;;;5.37;;
68212;SDS011;55035;47.792;8.724;2022-09-03T02:10:58;9.48;;;5.25;;
68212;SDS011;55035;47.792;8.724;2022-09-03T02:13:27;10.35;;;5.55;;
68212;SDS011;55035;47.792;8.724;2022-09-03T02:15:56;9.25;;;4.90;;
68212;SDS011;55035;47.792;8.724;2022-09-03T02:18:27;8.95;;;4.97;;
68212;SDS011;55035;47.792;8.724;2022-09-03T02:20:55;9.10;;;5.00;;
68212;SDS011;55035;47.792;8.724;2022-09-03T02:23:22;12.35;;;5.88;;
68212;SDS011;55035;47.792;8.724;2022-09-03T02:25:50;9.90;;;5.25;;
68212;SDS011;55035;47.792;8.724;2022-09-03T02:28:17;11.85;;;6.07;;
68212;SDS011;55035;47.792;8.724;2022-09-03T02:30:45;10.65;;;6.10;;
68212;SDS011;55035;47.792;8.724;2022-09-03T02:33:12;11.60;;;6.87;;
68212;SDS011;55035;47.792;8.724;2022-09-03T02:35:41;11.40;;;6.15;;
68212;SDS011;55035;47.792;8.724;2022-09-03T02:38:08;11.48;;;6.05;;
68212;SDS011;55035;47.792;8.724;2022-09-03T02:40:35;11.30;;;5.32;;
68212;SDS011;55035;47.792;8.724;2022-09-03T02:43:02;10.20;;;5.82;;
68212;SDS011;55035;47.792;8.724;2022-09-03T02:45:31;10.63;;;6.07;;
68212;SDS011;55035;47.792;8.724;2022-09-03T02:47:58;10.80;;;6.30;;
68212;SDS011;55035;47.792;8.724;2022-09-03T02:50:25;12.18;;;6.47;;
68212;SDS011;55035;47.792;8.724;2022-09-03T02:52:53;12.05;;;6.57;;
68212;SDS011;55035;47.792;8.724;2022-09-03T02:55:20;11.45;;;7.10;;
68212;SDS011;55035;47.792;8.724;2022-09-03T02:57:47;12.63;;;6.73;;
68212;SDS011;55035;47.792;8.724;2022-09-03T03:00:14;9.90;;;6.18;;
68212;SDS011;55035;47.792;8.724;2022-09-03T03:02:41;10.25;;;6.40;;
68212;SDS011;55035;47.792;8.724;2022-09-03T03:05:08;12.00;;;6.88;;
68212;SDS011;55035;47.792;8.724;2022-09-03T03:07:37;10.48;;;6.63;;
68212;SDS011;55035;47.792;8.724;2022-09-03T03:10:06;11.80;;;6.40;;
68212;SDS011;55035;47.792;8.724;2022-09-03T03:12:33;11.05;;;6.53;;
68212;SDS011;55035;47.792;8.724;2022-09-03T03:15:00;11.90;;;6.63;;
68212;SDS011;55035;47.792;8.724;2022-09-03T03:17:27;11.15;;;6.53;;
68212;SDS011;55035;47.792;8.724;2022-09-03T03:19:54;10.70;;;6.00;;
68212;SDS011;55035;47.792;8.724;2022-09-03T03:22:21;11.70;;;6.07;;
68212;SDS011;55035;47.792;8.724;2022-09-03T03:24:47;13.82;;;6.53;;
68212;SDS011;55035;47.792;8.724;2022-09-03T03:27:16;11.85;;;6.38;;
68212;SDS011;55035;47.792;8.724;2022-09-03T03:29:43;12.27;;;6.57;;
68212;SDS011;55035;47.792;8.724;2022-09-03T03:32:10;13.32;;;7.18;;
68212;SDS011;55035;47.792;8.724;2022-09-03T03:34:36;11.60;;;7.07;;
68212;SDS011;55035;47.792;8.724;2022-09-03T03:37:04;11.93;;;6.60;;
68212;SDS011;55035;47.792;8.724;2022-09-03T03:39:31;12.68;;;7.80;;
68212;SDS011;55035;47.792;8.724;2022-09-03T03:41:57;13.73;;;7.47;;
68212;SDS011;55035;47.792;8.724;2022-09-03T03:44:26;13.52;;;7.47;;
68212;SDS011;55035;47.792;8.724;2022-09-03T03:46:54;12.13;;;7.30;;
68212;SDS011;55035;47.792;8.724;2022-09-03T03:49:20;14.27;;;7.30;;
68212;SDS011;55035;47.792;8.724;2022-09-03T03:51:47;12.00;;;6.90;;
68212;SDS011;55035;47.792;8.724;2022-09-03T03:54:14;13.32;;;7.45;;
68212;SDS011;55035;47.792;8.724;2022-09-03T03:56:41;14.00;;;6.72;;
68212;SDS011;55035;47.792;8.724;2022-09-03T03:59:08;11.23;;;6.50;;
68212;SDS011;55035;47.792;8.724;2022-09-03T04:01:36;13.35;;;7.40;;
68212;SDS011;55035;47.792;8.724;2022-09-03T04:04:02;12.50;;;6.97;;
68212;SDS011;55035;47.792;8.724;2022-09-03T04:06:29;13.10;;;6.90;;
68212;SDS011;55035;47.792;8.724;2022-09-03T04:08:56;13.93;;;6.35;;
68212;SDS011;55035;47.792;8.724;2022-09-03T04:11:23;12.00;;;7.00;;
68212;SDS011;55035;47.792;8.724;2022-09-03T04:13:51;12.55;;;7.00;;
68212;SDS011;55035;47.792;8.724;2022-09-03T04:16:18;14.40;;;7.45;;
68212;SDS011;55035;47.792;8.724;2022-09-03T04:18:47;12.75;;;6.70;;
68212;SDS011;55035;47.792;8.724;2022-09-03T04:21:15;11.85;;;7.03;;
68212;SDS011;55035;47.792;8.724;2022-09-03T04:23:43;13.10;;;7.50;;
68212;SDS011;55035;47.792;8.724;2022-09-03T04:26:10;13.07;;;7.72;;
68212;SDS011;55035;47.792;8.724;2022-09-03T04:28:38;11.45;;;6.72;;
68212;SDS011;55035;47.792;8.724;2022-09-03T04:31:06;12.23;;;7.10;;
68212;SDS011;55035;47.792;8.724;2022-09-03T04:33:34;12.77;;;6.85;;
68212;SDS011;55035;47.792;8.724;2022-09-03T04:36:02;13.10;;;7.33;;
68212;SDS011;55035;47.792;8.724;2022-09-03T04:38:30;12.50;;;7.22;;
68212;SDS011;55035;47.792;8.724;2022-09-03T04:40:57;13.05;;;7.10;;
68212;SDS011;55035;47.792;8.724;2022-09-03T04:43:25;13.25;;;7.40;;
68212;SDS011;55035;47.792;8.724;2022-09-03T04:45:55;12.95;;;7.15;;
68212;SDS011;55035;47.792;8.724;2022-09-03T04:48:22;11.60;;;5.80;;
68212;SDS011;55035;47.792;8.724;2022-09-03T04:50:48;10.75;;;5.97;;
68212;SDS011;55035;47.792;8.724;2022-09-03T04:53:17;11.43;;;6.10;;
68212;SDS011;55035;47.792;8.724;2022-09-03T04:55:43;11.57;;;5.97;;
68212;SDS011;55035;47.792;8.724;2022-09-03T04:58:10;11.45;;;6.00;;
68212;SDS011;55035;47.792;8.724;2022-09-03T05:00:40;11.57;;;6.03;;
68212;SDS011;55035;47.792;8.724;2022-09-03T05:03:06;11.40;;;6.07;;
68212;SDS011;55035;47.792;8.724;2022-09-03T05:05:33;10.23;;;5.25;;
68212;SDS011;55035;47.792;8.724;2022-09-03T05:08:00;10.55;;;5.50;;
68212;SDS011;55035;47.792;8.724;2022-09-03T05:10:29;11.32;;;5.97;;
68212;SDS011;55035;47.792;8.724;2022-09-03T05:12:57;10.20;;;5.53;;
68212;SDS011;55035;47.792;8.724;2022-09-03T05:15:24;10.77;;;5.57;;
68212;SDS011;55035;47.792;8.724;2022-09-03T05:17:54;10.98;;;5.97;;
68212;SDS011;55035;47.792;8.724;2022-09-03T05:20:21;10.00;;;5.30;;
68212;SDS011;55035;47.792;8.724;2022-09-03T05:22:48;10.85;;;5.75;;
68212;SDS011;55035;47.792;8.724;2022-09-03T05:25:15;9.73;;;5.47;;
68212;SDS011;55035;47.792;8.724;2022-09-03T05:27:43;18.63;;;8.27;;
68212;SDS011;55035;47.792;8.724;2022-09-03T05:30:12;10.63;;;6.18;;
68212;SDS011;55035;47.792;8.724;2022-09-03T05:32:38;10.98;;;5.97;;
68212;SDS011;55035;47.792;8.724;2022-09-03T05:35:06;10.18;;;5.53;;
68212;SDS011;55035;47.792;8.724;2022-09-03T05:37:33;11.20;;;6.10;;
68212;SDS011;55035;47.792;8.724;2022-09-03T05:40:00;10.32;;;5.10;;
68212;SDS011;55035;47.792;8.724;2022-09-03T05:42:27;10.00;;;4.90;;
68212;SDS011;55035;47.792;8.724;2022-09-03T05:44:56;9.00;;;5.03;;
68212;SDS011;55035;47.792;8.724;2022-09-03T05:47:24;10.25;;;5.03;;
68212;SDS011;55035;47.792;8.724;2022-09-03T05:49:50;10.07;;;5.30;;
68212;SDS011;55035;47.792;8.724;2022-09-03T05:52:17;9.10;;;4.70;;
68212;SDS011;55035;47.792;8.724;2022-09-03T05:54:46;10.27;;;4.93;;
68212;SDS011;55035;47.792;8.724;2022-09-03T05:57:12;9.20;;;4.72;;
68212;SDS011;55035;47.792;8.724;2022-09-03T05:59:39;9.52;;;4.43;;
68212;SDS011;55035;47.792;8.724;2022-09-03T06:02:08;8.73;;;4.43;;
68212;SDS011;55035;47.792;8.724;2022-09-03T06:04:37;10.80;;;4.70;;
68212;SDS011;55035;47.792;8.724;2022-09-03T06:07:04;9.02;;;4.93;;
68212;SDS011;55035;47.792;8.724;2022-09-03T06:09:30;9.05;;;4.80;;
68212;SDS011;55035;47.792;8.724;2022-09-03T06:11:57;10.45;;;4.95;;
68212;SDS011;55035;47.792;8.724;2022-09-03T06:14:24;9.03;;;5.00;;
68212;SDS011;55035;47.792;8.724;2022-09-03T06:16:51;8.88;;;4.70;;
68212;SDS011;55035;47.792;8.724;2022-09-03T06:19:20;8.80;;;4.78;;
68212;SDS011;55035;47.792;8.724;2022-09-03T06:21:46;9.05;;;4.60;;
68212;SDS011;55035;47.792;8.724;2022-09-03T06:24:14;10.40;;;4.82;;
68212;SDS011;55035;47.792;8.724;2022-09-03T06:26:41;9.03;;;4.63;;
68212;SDS011;55035;47.792;8.724;2022-09-03T06:29:08;10.48;;;4.70;;
68212;SDS011;55035;47.792;8.724;2022-09-03T06:31:36;9.05;;;4.57;;
68212;SDS011;55035;47.792;8.724;2022-09-03T06:34:03;8.63;;;4.53;;
68212;SDS011;55035;47.792;8.724;2022-09-03T06:36:31;11.05;;;4.50;;
68212;SDS011;55035;47.792;8.724;2022-09-03T06:38:58;8.93;;;4.73;;
68212;SDS011;55035;47.792;8.724;2022-09-03T06:41:26;7.95;;;4.20;;
68212;SDS011;55035;47.792;8.724;2022-09-03T06:43:54;8.35;;;4.40;;
68212;SDS011;55035;47.792;8.724;2022-09-03T06:46:23;9.05;;;4.35;;
68212;SDS011;55035;47.792;8.724;2022-09-03T06:48:50;8.02;;;4.40;;
68212;SDS011;55035;47.792;8.724;2022-09-03T06:51:18;8.23;;;4.13;;
68212;SDS011;55035;47.792;8.724;2022-09-03T06:53:47;9.23;;;4.63;;
68212;SDS011;55035;47.792;8.724;2022-09-03T06:56:15;9.68;;;4.72;;
68212;SDS011;55035;47.792;8.724;2022-09-03T06:58:42;9.90;;;4.80;;
68212;SDS011;55035;47.792;8.724;2022-09-03T07:01:10;9.00;;;4.82;;
68212;SDS011;55035;47.792;8.724;2022-09-03T07:03:38;8.77;;;4.60;;
68212;SDS011;55035;47.792;8.724;2022-09-03T07:06:06;7.90;;;4.35;;
68212;SDS011;55035;47.792;8.724;2022-09-03T07:08:33;8.45;;;3.90;;
68212;SDS011;55035;47.792;8.724;2022-09-03T07:11:02;7.65;;;4.20;;
68212;SDS011;55035;47.792;8.724;2022-09-03T07:13:33;7.90;;;3.85;;
68212;SDS011;55035;47.792;8.724;2022-09-03T07:16:00;8.03;;;4.13;;
68212;SDS011;55035;47.792;8.724;2022-09-03T07:18:27;8.80;;;4.03;;
68212;SDS011;55035;47.792;8.724;2022-09-03T07:20:56;8.25;;;4.20;;
68212;SDS011;55035;47.792;8.724;2022-09-03T07:23:23;8.02;;;3.45;;
68212;SDS011;55035;47.792;8.724;2022-09-03T07:25:54;7.10;;;3.80;;
68212;SDS011;55035;47.792;8.724;2022-09-03T07:28:22;7.63;;;3.67;;
68212;SDS011;55035;47.792;8.724;2022-09-03T07:30:49;7.28;;;3.40;;
68212;SDS011;55035;47.792;8.724;2022-09-03T07:33:17;7.28;;;3.20;;
68212;SDS011;55035;47.792;8.724;2022-09-03T07:35:44;6.93;;;3.33;;
68212;SDS011;55035;47.792;8.724;2022-09-03T07:38:11;6.78;;;3.00;;
68212;SDS011;55035;47.792;8.724;2022-09-03T07:40:38;6.10;;;2.97;;
68212;SDS011;55035;47.792;8.724;2022-09-03T07:43:04;6.20;;;3.08;;
68212;SDS011;55035;47.792;8.724;2022-09-03T07:45:32;8.55;;;3.20;;
68212;SDS011;55035;47.792;8.724;2022-09-03T07:47:59;6.25;;;3.10;;
68212;SDS011;55035;47.792;8.724;2022-09-03T07:50:26;7.55;;;3.30;;
68212;SDS011;55035;47.792;8.724;2022-09-03T07:52:57;6.93;;;3.63;;
68212;SDS011;55035;47.792;8.724;2022-09-03T07:55:24;7.05;;;3.05;;
68212;SDS011;55035;47.792;8.724;2022-09-03T07:57:54;6.20;;;3.20;;
68212;SDS011;55035;47.792;8.724;2022-09-03T08:00:21;6.20;;;3.28;;
68212;SDS011;55035;47.792;8.724;2022-09-03T08:02:49;5.95;;;2.63;;
68212;SDS011;55035;47.792;8.724;2022-09-03T08:05:16;6.67;;;3.10;;
68212;SDS011;55035;47.792;8.724;2022-09-03T08:07:45;6.03;;;2.85;;
68212;SDS011;55035;47.792;8.724;2022-09-03T08:10:12;5.97;;;2.85;;
68212;SDS011;55035;47.792;8.724;2022-09-03T08:12:39;6.28;;;3.13;;
68212;SDS011;55035;47.792;8.724;2022-09-03T08:15:06;5.80;;;2.50;;
68212;SDS011;55035;47.792;8.724;2022-09-03T08:17:34;6.17;;;2.83;;
68212;SDS011;55035;47.792;8.724;2022-09-03T08:20:02;7.15;;;3.30;;
68212;SDS011;55035;47.792;8.724;2022-09-03T08:22:29;6.00;;;2.90;;
68212;SDS011;55035;47.792;8.724;2022-09-03T08:24:56;6.10;;;3.08;;
68212;SDS011;55035;47.792;8.724;2022-09-03T08:27:24;5.90;;;2.88;;
68212;SDS011;55035;47.792;8.724;2022-09-03T08:29:52;6.80;;;3.60;;
68212;SDS011;55035;47.792;8.724;2022-09-03T08:32:18;6.00;;;3.20;;
68212;SDS011;55035;47.792;8.724;2022-09-03T08:34:46;7.25;;;3.13;;
68212;SDS011;55035;47.792;8.724;2022-09-03T08:37:14;6.35;;;2.80;;
68212;SDS011;55035;47.792;8.724;2022-09-03T08:39:40;6.18;;;2.90;;
68212;SDS011;55035;47.792;8.724;2022-09-03T08:42:17;6.83;;;3.30;;
68212;SDS011;55035;47.792;8.724;2022-09-03T08:44:47;6.40;;;3.40;;
68212;SDS011;55035;47.792;8.724;2022-09-03T08:47:16;7.97;;;3.10;;
68212;SDS011;55035;47.792;8.724;2022-09-03T08:49:45;8.30;;;3.80;;
68212;SDS011;55035;47.792;8.724;2022-09-03T08:52:20;6.10;;;3.28;;
68212;SDS011;55035;47.792;8.724;2022-09-03T08:54:47;6.73;;;3.20;;
68212;SDS011;55035;47.792;8.724;2022-09-03T08:57:15;6.78;;;3.75;;
68212;SDS011;55035;47.792;8.724;2022-09-03T08:59:44;5.97;;;3.15;;
68212;SDS011;55035;47.792;8.724;2022-09-03T09:02:14;5.97;;;3.30;;
68212;SDS011;55035;47.792;8.724;2022-09-03T09:04:47;6.25;;;2.95;;
68212;SDS011;55035;47.792;8.724;2022-09-03T09:07:20;5.40;;;2.20;;
68212;SDS011;55035;47.792;8.724;2022-09-03T09:09:49;7.47;;;3.00;;
68212;SDS011;55035;47.792;8.724;2022-09-03T09:12:21;5.95;;;2.80;;
68212;SDS011;55035;47.792;8.724;2022-09-03T09:14:56;6.70;;;2.70;;
68212;SDS011;55035;47.792;8.724;2022-09-03T09:17:31;5.22;;;2.45;;
68212;SDS011;55035;47.792;8.724;2022-09-03T09:20:04;5.20;;;2.60;;
68212;SDS011;55035;47.792;8.724;2022-09-03T09:22:35;6.35;;;3.17;;
68212;SDS011;55035;47.792;8.724;2022-09-03T09:25:05;6.35;;;3.63;;
68212;SDS011;55035;47.792;8.724;2022-09-03T09:27:37;6.60;;;2.55;;
68212;SDS011;55035;47.792;8.724;2022-09-03T09:30:06;5.68;;;2.58;;
68212;SDS011;55035;47.792;8.724;2022-09-03T09:32:32;6.40;;;3.00;;
68212;SDS011;55035;47.792;8.724;2022-09-03T09:35:06;5.63;;;2.55;;
68212;SDS011;55035;47.792;8.724;2022-09-03T09:37:44;5.28;;;2.55;;
68212;SDS011;55035;47.792;8.724;2022-09-03T09:40:20;5.95;;;2.92;;
68212;SDS011;55035;47.792;8.724;2022-09-03T09:42:48;5.35;;;2.50;;
68212;SDS011;55035;47.792;8.724;2022-09-03T09:45:15;5.83;;;2.50;;
68212;SDS011;55035;47.792;8.724;2022-09-03T09:47:41;5.93;;;2.67;;
68212;SDS011;55035;47.792;8.724;2022-09-03T09:50:15;5.25;;;2.53;;
68212;SDS011;55035;47.792;8.724;2022-09-03T09:52:43;7.05;;;2.60;;
68212;SDS011;55035;47.792;8.724;2022-09-03T09:55:14;5.53;;;2.20;;
68212;SDS011;55035;47.792;8.724;2022-09-03T09:57:42;5.67;;;1.67;;
68212;SDS011;55035;47.792;8.724;2022-09-03T10:00:09;5.82;;;2.13;;
68212;SDS011;55035;47.792;8.724;2022-09-03T10:02:37;11.85;;;3.20;;
68212;SDS011;55035;47.792;8.724;2022-09-03T10:05:13;12.55;;;2.42;;
68212;SDS011;55035;47.792;8.724;2022-09-03T10:07:41;8.27;;;2.10;;
68212;SDS011;55035;47.792;8.724;2022-09-03T10:10:14;7.47;;;1.90;;
68212;SDS011;55035;47.792;8.724;2022-09-03T10:12:43;12.07;;;2.42;;
68212;SDS011;55035;47.792;8.724;2022-09-03T10:15:13;8.90;;;2.30;;
68212;SDS011;55035;47.792;8.724;2022-09-03T10:17:51;7.00;;;1.80;;
68212;SDS011;55035;47.792;8.724;2022-09-03T10:20:21;6.85;;;2.10;;
68212;SDS011;55035;47.792;8.724;2022-09-03T10:22:57;5.97;;;1.67;;
68212;SDS011;55035;47.792;8.724;2022-09-03T10:25:28;5.57;;;2.00;;
68212;SDS011;55035;47.792;8.724;2022-09-03T10:27:57;6.03;;;1.90;;
68212;SDS011;55035;47.792;8.724;2022-09-03T10:30:26;6.53;;;2.13;;
68212;SDS011;55035;47.792;8.724;2022-09-03T10:32:56;5.60;;;1.77;;
68212;SDS011;55035;47.792;8.724;2022-09-03T10:35:28;5.57;;;1.60;;
68212;SDS011;55035;47.792;8.724;2022-09-03T10:37:59;4.85;;;1.80;;
68212;SDS011;55035;47.792;8.724;2022-09-03T10:40:30;5.95;;;1.70;;
68212;SDS011;55035;47.792;8.724;2022-09-03T10:43:08;5.53;;;2.13;;
68212;SDS011;55035;47.792;8.724;2022-09-03T10:45:40;5.70;;;2.17;;
68212;SDS011;55035;47.792;8.724;2022-09-03T10:48:24;6.40;;;1.93;;
68212;SDS011;55035;47.792;8.724;2022-09-03T10:50:55;5.68;;;2.03;;
68212;SDS011;55035;47.792;8.724;2022-09-03T10:53:26;5.60;;;2.00;;
68212;SDS011;55035;47.792;8.724;2022-09-03T10:55:59;6.80;;;1.98;;
68212;SDS011;55035;47.792;8.724;2022-09-03T10:58:34;5.50;;;2.00;;
68212;SDS011;55035;47.792;8.724;2022-09-03T11:01:06;5.30;;;1.70;;
68212;SDS011;55035;47.792;8.724;2022-09-03T11:03:42;6.68;;;2.40;;
68212;SDS011;55035;47.792;8.724;2022-09-03T11:06:11;6.07;;;2.60;;
68212;SDS011;55035;47.792;8.724;2022-09-03T11:08:42;6.82;;;1.60;;
68212;SDS011;55035;47.792;8.724;2022-09-03T11:11:12;7.03;;;1.70;;
68212;SDS011;55035;47.792;8.724;2022-09-03T11:13:43;6.23;;;1.90;;
68212;SDS011;55035;47.792;8.724;2022-09-03T11:16:12;5.93;;;1.77;;
68212;SDS011;55035;47.792;8.724;2022-09-03T11:18:42;5.93;;;1.80;;
68212;SDS011;55035;47.792;8.724;2022-09-03T11:21:10;5.45;;;1.75;;
68212;SDS011;55035;47.792;8.724;2022-09-03T11:23:39;4.95;;;1.80;;
68212;SDS011;55035;47.792;8.724;2022-09-03T11:26:07;5.33;;;1.97;;
68212;SDS011;55035;47.792;8.724;2022-09-03T11:28:40;5.40;;;1.73;;
68212;SDS011;55035;47.792;8.724;2022-09-03T11:31:17;5.30;;;1.90;;
68212;SDS011;55035;47.792;8.724;2022-09-03T11:33:46;5.50;;;1.92;;
68212;SDS011;55035;47.792;8.724;2022-09-03T11:36:22;7.03;;;1.85;;
68212;SDS011;55035;47.792;8.724;2022-09-03T11:38:50;5.70;;;2.23;;
68212;SDS011;55035;47.792;8.724;2022-09-03T11:41:22;5.05;;;1.83;;
68212;SDS011;55035;47.792;8.724;2022-09-03T11:43:53;6.28;;;2.10;;
68212;SDS011;55035;47.792;8.724;2022-09-03T11:46:27;4.90;;;1.80;;
68212;SDS011;55035;47.792;8.724;2022-09-03T11:48:54;5.13;;;1.63;;
68212;SDS011;55035;47.792;8.724;2022-09-03T11:51:29;5.30;;;1.60;;
68212;SDS011;55035;47.792;8.724;2022-09-03T11:53:58;5.25;;;1.67;;
68212;SDS011;55035;47.792;8.724;2022-09-03T11:56:25;4.60;;;1.27;;
68212;SDS011;55035;47.792;8.724;2022-09-03T11:59:14;4.60;;;1.40;;
68212;SDS011;55035;47.792;8.724;2022-09-03T12:01:42;4.70;;;1.40;;
68212;SDS011;55035;47.792;8.724;2022-09-03T12:04:12;6.60;;;1.90;;
68212;SDS011;55035;47.792;8.724;2022-09-03T12:06:48;5.40;;;2.05;;
68212;SDS011;55035;47.792;8.724;2022-09-03T12:09:28;4.68;;;1.80;;
68212;SDS011;55035;47.792;8.724;2022-09-03T12:12:03;4.68;;;1.77;;
68212;SDS011;55035;47.792;8.724;2022-09-03T12:14:35;5.65;;;1.80;;
68212;SDS011;55035;47.792;8.724;2022-09-03T12:17:08;5.03;;;1.73;;
68212;SDS011;55035;47.792;8.724;2022-09-03T12:19:39;5.38;;;1.60;;
68212;SDS011;55035;47.792;8.724;2022-09-03T12:22:09;4.80;;;1.55;;
68212;SDS011;55035;47.792;8.724;2022-09-03T12:24:38;5.05;;;1.95;;
68212;SDS011;55035;47.792;8.724;2022-09-03T12:27:08;5.00;;;1.90;;
68212;SDS011;55035;47.792;8.724;2022-09-03T12:29:37;5.50;;;1.50;;
68212;SDS011;55035;47.792;8.724;2022-09-03T12:32:06;7.32;;;1.58;;
68212;SDS011;55035;47.792;8.724;2022-09-03T12:34:33;4.97;;;1.73;;
68212;SDS011;55035;47.792;8.724;2022-09-03T12:37:00;5.40;;;1.83;;
68212;SDS011;55035;47.792;8.724;2022-09-03T12:39:27;4.57;;;1.70;;
68212;SDS011;55035;47.792;8.724;2022-09-03T12:41:58;5.30;;;1.80;;
68212;SDS011;55035;47.792;8.724;2022-09-03T12:44:26;5.13;;;1.85;;
68212;SDS011;55035;47.792;8.724;2022-09-03T12:47:05;4.60;;;1.63;;
68212;SDS011;55035;47.792;8.724;2022-09-03T12:49:35;4.80;;;1.83;;
68212;SDS011;55035;47.792;8.724;2022-09-03T12:52:04;5.45;;;1.60;;
68212;SDS011;55035;47.792;8.724;2022-09-03T12:54:35;5.03;;;1.70;;
68212;SDS011;55035;47.792;8.724;2022-09-03T12:57:03;4.15;;;1.20;;
68212;SDS011;55035;47.792;8.724;2022-09-03T12:59:31;4.45;;;1.55;;
68212;SDS011;55035;47.792;8.724;2022-09-03T13:01:59;4.25;;;1.50;;
68212;SDS011;55035;47.792;8.724;2022-09-03T13:04:29;4.80;;;1.42;;
68212;SDS011;55035;47.792;8.724;2022-09-03T13:06:59;4.07;;;1.27;;
68212;SDS011;55035;47.792;8.724;2022-09-03T13:09:28;4.35;;;1.40;;
68212;SDS011;55035;47.792;8.724;2022-09-03T13:11:56;4.53;;;1.70;;
68212;SDS011;55035;47.792;8.724;2022-09-03T13:14:23;5.28;;;1.50;;
68212;SDS011;55035;47.792;8.724;2022-09-03T13:17:09;4.90;;;1.60;;
68212;SDS011;55035;47.792;8.724;2022-09-03T13:19:44;4.00;;;1.33;;
68212;SDS011;55035;47.792;8.724;2022-09-03T13:22:15;4.78;;;1.80;;
68212;SDS011;55035;47.792;8.724;2022-09-03T13:24:52;4.45;;;1.30;;
68212;SDS011;55035;47.792;8.724;2022-09-03T13:27:24;4.03;;;1.30;;
68212;SDS011;55035;47.792;8.724;2022-09-03T13:30:00;4.40;;;1.50;;
68212;SDS011;55035;47.792;8.724;2022-09-03T13:32:31;4.80;;;1.77;;
68212;SDS011;55035;47.792;8.724;2022-09-03T13:35:04;4.28;;;1.48;;
68212;SDS011;55035;47.792;8.724;2022-09-03T13:37:34;4.30;;;1.40;;
68212;SDS011;55035;47.792;8.724;2022-09-03T13:40:05;4.47;;;1.70;;
68212;SDS011;55035;47.792;8.724;2022-09-03T13:42:40;5.10;;;1.60;;
68212;SDS011;55035;47.792;8.724;2022-09-03T13:45:12;4.40;;;1.63;;
68212;SDS011;55035;47.792;8.724;2022-09-03T13:47:41;5.65;;;1.80;;
68212;SDS011;55035;47.792;8.724;2022-09-03T13:50:33;4.97;;;1.70;;
68212;SDS011;55035;47.792;8.724;2022-09-03T13:53:06;4.72;;;1.70;;
68212;SDS011;55035;47.792;8.724;2022-09-03T13:55:35;4.50;;;1.58;;
68212;SDS011;55035;47.792;8.724;2022-09-03T13:58:04;4.50;;;1.63;;
68212;SDS011;55035;47.792;8.724;2022-09-03T14:00:33;4.15;;;1.27;;
68212;SDS011;55035;47.792;8.724;2022-09-03T14:03:06;4.80;;;1.48;;
68212;SDS011;55035;47.792;8.724;2022-09-03T14:05:37;4.55;;;1.58;;
68212;SDS011;55035;47.792;8.724;2022-09-03T14:08:08;4.80;;;1.70;;
68212;SDS011;55035;47.792;8.724;2022-09-03T14:10:50;4.47;;;1.47;;
68212;SDS011;55035;47.792;8.724;2022-09-03T14:13:20;5.47;;;1.70;;
68212;SDS011;55035;47.792;8.724;2022-09-03T14:15:51;5.30;;;1.90;;
68212;SDS011;55035;47.792;8.724;2022-09-03T14:18:22;4.65;;;1.70;;
68212;SDS011;55035;47.792;8.724;2022-09-03T14:20:57;4.60;;;1.50;;
68212;SDS011;55035;47.792;8.724;2022-09-03T14:23:28;4.53;;;1.40;;
68212;SDS011;55035;47.792;8.724;2022-09-03T14:25:57;4.80;;;1.52;;
68212;SDS011;55035;47.792;8.724;2022-09-03T14:28:27;5.25;;;1.40;;
68212;SDS011;55035;47.792;8.724;2022-09-03T14:30:57;5.25;;;1.80;;
68212;SDS011;55035;47.792;8.724;2022-09-03T14:33:29;5.32;;;1.98;;
68212;SDS011;55035;47.792;8.724;2022-09-03T14:36:08;5.10;;;2.10;;
68212;SDS011;55035;47.792;8.724;2022-09-03T14:38:56;5.78;;;1.85;;
68212;SDS011;55035;47.792;8.724;2022-09-03T14:41:33;4.95;;;1.52;;
68212;SDS011;55035;47.792;8.724;2022-09-03T14:44:08;5.43;;;1.60;;
68212;SDS011;55035;47.792;8.724;2022-09-03T14:46:43;4.90;;;1.67;;
68212;SDS011;55035;47.792;8.724;2022-09-03T14:49:19;4.90;;;1.73;;
68212;SDS011;55035;47.792;8.724;2022-09-03T14:51:53;5.18;;;2.10;;
68212;SDS011;55035;47.792;8.724;2022-09-03T14:54:44;9.25;;;3.45;;
68212;SDS011;55035;47.792;8.724;2022-09-03T15:00:06;5.20;;;1.92;;
68212;SDS011;55035;47.792;8.724;2022-09-03T15:05:26;5.10;;;1.75;;
68212;SDS011;55035;47.792;8.724;2022-09-03T15:08:01;5.00;;;1.73;;